createdAt,value
2022-09-23T00:01:18.874Z,100568.87
2022-09-23T00:03:46.611Z,100562.34
2022-09-23T00:06:21.037Z,100562.44
2022-09-23T00:08:50.335Z,100560.19
2022-09-23T00:11:22.585Z,100574.16
2022-09-23T00:13:52.625Z,100563.44
2022-09-23T00:16:23.131Z,100562.03
2022-09-23T00:18:50.512Z,100559.69
2022-09-23T00:21:18.654Z,100555.97
2022-09-23T00:23:45.504Z,100553.81
2022-09-23T00:26:15.692Z,100549.56
2022-09-23T00:28:43.093Z,100549.97
2022-09-23T00:31:12.612Z,100547.03
2022-09-23T00:33:40.756Z,100543.78
2022-09-23T00:36:11.099Z,100541.53
2022-09-23T00:38:38.807Z,100536.72
2022-09-23T00:41:06.460Z,100546.38
2022-09-23T00:43:47.847Z,100545.91
2022-09-23T00:46:21.640Z,100532.59
2022-09-23T00:48:51.279Z,100532.91
2022-09-23T00:51:20.849Z,100526.50
2022-09-23T00:53:48.719Z,100524.56
2022-09-23T00:56:15.939Z,100519.75
2022-09-23T00:58:44.934Z,100524.47
2022-09-23T01:01:16.708Z,100523.88
2022-09-23T01:03:45.510Z,100531.78
2022-09-23T01:06:13.083Z,100528.47
2022-09-23T01:08:41.263Z,100523.69
2022-09-23T01:11:19.760Z,100532.41
2022-09-23T01:14:05.526Z,100526.59
2022-09-23T01:16:43.752Z,100525.56
2022-09-23T01:19:18.808Z,100530.16
2022-09-23T01:22:05.015Z,100538.87
2022-09-23T01:24:43.945Z,100533.91
2022-09-23T01:27:36.854Z,100538.69
2022-09-23T01:30:31.084Z,100532.50
2022-09-23T01:33:20.238Z,100526.69
2022-09-23T01:35:56.710Z,100536.22
2022-09-23T01:38:38.193Z,100538.50
2022-09-23T01:41:17.058Z,100536.81
2022-09-23T01:43:48.334Z,100534.09
2022-09-23T01:46:21.672Z,100531.28
2022-09-23T01:49:09.258Z,100533.81
2022-09-23T01:51:40.338Z,100531.56
2022-09-23T01:54:15.995Z,100534.53
2022-09-23T01:56:47.891Z,100533.19
2022-09-23T01:59:20.795Z,100540.31
2022-09-23T02:01:55.552Z,100531.19
2022-09-23T02:04:31.148Z,100528.56
2022-09-23T02:07:05.299Z,100540.81
2022-09-23T02:09:37.310Z,100535.75
2022-09-23T02:12:08.254Z,100527.50
2022-09-23T02:14:58.363Z,100538.34
2022-09-23T02:17:31.411Z,100532.88
2022-09-23T02:20:02.118Z,100538.13
2022-09-23T02:22:30.215Z,100536.06
2022-09-23T02:24:57.799Z,100524.03
2022-09-23T02:27:32.930Z,100525.34
2022-09-23T02:30:08.969Z,100527.38
2022-09-23T02:32:51.285Z,100522.13
2022-09-23T02:35:37.119Z,100527.56
2022-09-23T02:38:13.002Z,100531.75
2022-09-23T02:41:05.055Z,100532.44
2022-09-23T02:43:52.013Z,100526.53
2022-09-23T02:46:19.519Z,100528.31
2022-09-23T02:48:50.626Z,100524.59
2022-09-23T02:51:17.414Z,100535.16
2022-09-23T02:53:45.973Z,100533.28
2022-09-23T02:56:19.622Z,100535.50
2022-09-23T02:58:51.838Z,100532.28
2022-09-23T03:02:05.354Z,100532.28
2022-09-23T03:05:12.802Z,100531.53
2022-09-23T03:07:54.192Z,100532.09
2022-09-23T03:10:35.151Z,100523.50
2022-09-23T03:13:11.222Z,100519.28
2022-09-23T03:15:48.294Z,100526.13
2022-09-23T03:18:56.017Z,100533.38
2022-09-23T03:21:27.040Z,100532.63
2022-09-23T03:23:55.121Z,100532.78
2022-09-23T03:26:28.598Z,100539.81
2022-09-23T03:28:56.120Z,100531.09
2022-09-23T03:31:22.993Z,100520.72
2022-09-23T03:33:52.687Z,100529.16
2022-09-23T03:36:43.880Z,100528.22
2022-09-23T03:39:14.944Z,100538.22
2022-09-23T03:41:45.999Z,100522.50
2022-09-23T03:44:12.737Z,100527.53
2022-09-23T03:46:41.564Z,100522.91
2022-09-23T03:49:14.012Z,100529.16
2022-09-23T03:51:44.551Z,100529.25
2022-09-23T03:54:12.017Z,100523.34
2022-09-23T03:56:38.887Z,100526.66
2022-09-23T03:59:05.738Z,100523.94
2022-09-23T04:01:32.885Z,100527.22
2022-09-23T04:04:00.180Z,100530.25
2022-09-23T04:06:27.013Z,100534.31
2022-09-23T04:08:53.882Z,100534.16
2022-09-23T04:11:20.996Z,100527.63
2022-09-23T04:13:47.837Z,100530.94
2022-09-23T04:16:14.780Z,100537.63
2022-09-23T04:18:41.906Z,100532.78
2022-09-23T04:21:08.749Z,100529.25
2022-09-23T04:23:35.619Z,100527.03
2022-09-23T04:26:05.282Z,100527.88
2022-09-23T04:28:32.230Z,100529.59
2022-09-23T04:30:59.095Z,100525.34
2022-09-23T04:33:26.488Z,100534.34
2022-09-23T04:35:53.683Z,100533.31
2022-09-23T04:38:20.618Z,100530.09
2022-09-23T04:40:48.683Z,100535.75
2022-09-23T04:43:16.438Z,100542.25
2022-09-23T04:45:44.095Z,100547.25
2022-09-23T04:48:12.790Z,100546.16
2022-09-23T04:50:40.161Z,100537.59
2022-09-23T04:53:07.072Z,100545.47
2022-09-23T04:55:34.158Z,100549.09
2022-09-23T04:58:01.014Z,100548.69
2022-09-23T05:00:28.679Z,100551.31
2022-09-23T05:02:58.828Z,100553.31
2022-09-23T05:05:29.749Z,100554.66
2022-09-23T05:07:59.987Z,100563.88
2022-09-23T05:10:29.617Z,100566.72
2022-09-23T05:12:59.517Z,100574.16
2022-09-23T05:15:26.533Z,100569.59
2022-09-23T05:17:54.777Z,100568.87
2022-09-23T05:20:21.901Z,100572.44
2022-09-23T05:22:48.763Z,100565.81
2022-09-23T05:25:15.595Z,100571.53
2022-09-23T05:27:42.698Z,100564.72
2022-09-23T05:30:10.519Z,100573.38
2022-09-23T05:32:37.511Z,100579.19
2022-09-23T05:35:04.909Z,100578.53
2022-09-23T05:37:33.075Z,100573.59
2022-09-23T05:39:59.950Z,100575.09
2022-09-23T05:42:28.139Z,100587.81
2022-09-23T05:44:56.209Z,100587.25
2022-09-23T05:47:23.069Z,100579.34
2022-09-23T05:49:59.583Z,100585.09
2022-09-23T05:52:27.477Z,100582.25
2022-09-23T05:54:54.597Z,100572.41
2022-09-23T05:57:21.511Z,100575.59
2022-09-23T05:59:48.602Z,100575.22
2022-09-23T06:02:15.777Z,100583.66
2022-09-23T06:04:43.864Z,100581.59
2022-09-23T06:07:10.805Z,100575.91
2022-09-23T06:09:37.750Z,100575.47
2022-09-23T06:12:06.328Z,100579.66
2022-09-23T06:14:33.246Z,100584.41
2022-09-23T06:17:00.175Z,100588.50
2022-09-23T06:19:27.286Z,100586.97
2022-09-23T06:21:54.165Z,100585.50
2022-09-23T06:24:24.951Z,100598.28
2022-09-23T06:26:55.792Z,100600.69
2022-09-23T06:29:22.689Z,100605.41
2022-09-23T06:31:49.819Z,100593.53
2022-09-23T06:34:17.451Z,100606.59
2022-09-23T06:36:46.198Z,100611.03
2022-09-23T06:39:14.964Z,100616.47
2022-09-23T06:41:42.436Z,100609.56
2022-09-23T06:44:11.686Z,100615.88
2022-09-23T06:46:38.689Z,100614.53
2022-09-23T06:49:05.867Z,100613.53
2022-09-23T06:51:32.732Z,100608.03
2022-09-23T06:53:59.632Z,100616.19
2022-09-23T06:56:26.767Z,100616.13
2022-09-23T06:58:54.705Z,100623.06
2022-09-23T07:01:22.309Z,100616.66
2022-09-23T07:03:49.478Z,100613.72
2022-09-23T07:06:17.221Z,100602.59
2022-09-23T07:08:47.163Z,100610.56
2022-09-23T07:11:15.312Z,100606.87
2022-09-23T07:13:42.741Z,100613.56
2022-09-23T07:16:10.959Z,100612.63
2022-09-23T07:18:38.879Z,100614.56
2022-09-23T07:21:13.151Z,100610.00
2022-09-23T07:23:40.258Z,100613.47
2022-09-23T07:26:08.025Z,100621.94
2022-09-23T07:28:36.777Z,100625.47
2022-09-23T07:31:12.105Z,100615.81
2022-09-23T07:33:41.457Z,100620.28
2022-09-23T07:36:10.818Z,100624.94
2022-09-23T07:38:41.509Z,100620.66
2022-09-23T07:41:13.275Z,100626.59
2022-09-23T07:43:40.844Z,100627.50
2022-09-23T07:46:11.084Z,100618.44
2022-09-23T07:48:38.523Z,100618.31
2022-09-23T07:51:19.060Z,100609.28
2022-09-23T07:53:51.224Z,100620.19
2022-09-23T07:56:19.411Z,100612.41
2022-09-23T07:58:59.832Z,100609.22
2022-09-23T08:01:29.516Z,100616.41
2022-09-23T08:03:57.985Z,100617.81
2022-09-23T08:06:24.946Z,100613.47
2022-09-23T08:08:53.519Z,100604.13
2022-09-23T08:11:20.831Z,100617.38
2022-09-23T08:13:47.762Z,100612.59
2022-09-23T08:16:14.738Z,100616.75
2022-09-23T08:18:45.487Z,100609.94
2022-09-23T08:21:12.463Z,100616.00
2022-09-23T08:23:39.337Z,100614.59
2022-09-23T08:26:11.877Z,100616.66
2022-09-23T08:28:48.180Z,100608.34
2022-09-23T08:31:15.926Z,100602.91
2022-09-23T08:33:43.141Z,100614.53
2022-09-23T08:36:10.081Z,100611.88
2022-09-23T08:38:37.189Z,100604.53
2022-09-23T08:41:22.720Z,100609.00
2022-09-23T08:43:53.509Z,100604.75
2022-09-23T08:46:26.949Z,100613.94
2022-09-23T08:48:54.695Z,100607.97
2022-09-23T08:51:39.896Z,100615.47
2022-09-23T08:54:10.239Z,100612.78
2022-09-23T08:56:38.830Z,100619.50
2022-09-23T08:59:21.128Z,100598.16
2022-09-23T09:02:01.134Z,100604.47
2022-09-23T09:04:40.998Z,100604.06
2022-09-23T09:07:34.641Z,100615.88
2022-09-23T09:10:21.981Z,100613.75
2022-09-23T09:12:51.250Z,100607.09
2022-09-23T09:15:24.713Z,100608.50
2022-09-23T09:18:12.247Z,100614.22
2022-09-23T09:20:46.086Z,100616.84
2022-09-23T09:23:24.026Z,100612.06
2022-09-23T09:26:01.738Z,100613.81
2022-09-23T09:28:35.760Z,100600.38
2022-09-23T09:31:11.292Z,100606.37
2022-09-23T09:34:06.742Z,100611.28
2022-09-23T09:36:44.322Z,100603.63
2022-09-23T09:39:12.911Z,100604.72
2022-09-23T09:41:42.145Z,100598.81
2022-09-23T09:44:24.175Z,100594.19
2022-09-23T09:47:20.916Z,100592.25
2022-09-23T09:50:00.745Z,100588.28
2022-09-23T09:52:29.854Z,100586.75
2022-09-23T09:55:20.388Z,100584.25
2022-09-23T09:58:04.074Z,100576.72
2022-09-23T10:00:30.809Z,100579.37
2022-09-23T10:03:02.686Z,100576.37
2022-09-23T10:05:47.080Z,100582.59
2022-09-23T10:08:35.857Z,100579.41
2022-09-23T10:11:05.759Z,100576.69
2022-09-23T10:13:32.864Z,100578.66
2022-09-23T10:16:00.811Z,100574.00
2022-09-23T10:18:50.201Z,100580.31
2022-09-23T10:21:25.470Z,100567.31
2022-09-23T10:23:57.925Z,100566.72
2022-09-23T10:26:46.323Z,100571.25
2022-09-23T10:29:34.061Z,100568.56
2022-09-23T10:32:27.901Z,100564.41
2022-09-23T10:35:09.756Z,100565.87
2022-09-23T10:37:39.403Z,100569.97
2022-09-23T10:40:51.765Z,100569.50
2022-09-23T10:43:59.804Z,100563.72
2022-09-23T10:46:45.880Z,100562.84
2022-09-23T10:49:45.139Z,100560.03
2022-09-23T10:52:32.028Z,100550.94
2022-09-23T10:55:18.662Z,100553.75
2022-09-23T10:57:45.448Z,100552.28
2022-09-23T11:00:43.518Z,100556.56
2022-09-23T11:03:17.535Z,100557.44
2022-09-23T11:06:23.076Z,100559.69
2022-09-23T11:08:59.698Z,100555.78
2022-09-23T11:11:46.314Z,100549.19
2022-09-23T11:14:32.755Z,100555.84
2022-09-23T11:17:04.210Z,100539.19
2022-09-23T11:19:49.209Z,100542.06
2022-09-23T11:22:36.001Z,100543.13
2022-09-23T11:25:18.239Z,100534.88
2022-09-23T11:28:18.549Z,100536.28
2022-09-23T11:31:14.582Z,100537.12
2022-09-23T11:34:08.217Z,100527.03
2022-09-23T11:36:41.618Z,100525.09
2022-09-23T11:39:49.235Z,100518.44
2022-09-23T11:42:29.189Z,100507.53
2022-09-23T11:44:58.261Z,100517.09
2022-09-23T11:47:35.351Z,100506.44
2022-09-23T11:50:20.994Z,100507.94
2022-09-23T11:52:53.230Z,100505.81
2022-09-23T11:55:45.797Z,100504.69
2022-09-23T11:58:25.886Z,100497.72
2022-09-23T12:01:07.389Z,100501.19
2022-09-23T12:03:53.543Z,100508.84
2022-09-23T12:06:28.022Z,100502.28
2022-09-23T12:09:00.126Z,100507.56
2022-09-23T12:11:49.021Z,100502.81
2022-09-23T12:14:23.757Z,100500.59
2022-09-23T12:17:07.145Z,100496.06
2022-09-23T12:19:54.655Z,100497.81
2022-09-23T12:22:37.514Z,100487.16
2022-09-23T12:25:29.412Z,100483.47
2022-09-23T12:28:24.415Z,100486.66
2022-09-23T12:30:54.341Z,100483.12
2022-09-23T12:33:27.380Z,100479.09
2022-09-23T12:35:56.342Z,100475.53
2022-09-23T12:38:33.734Z,100467.72
2022-09-23T12:41:01.127Z,100464.03
2022-09-23T12:43:35.607Z,100463.13
2022-09-23T12:46:25.692Z,100462.19
2022-09-23T12:48:58.991Z,100462.84
2022-09-23T12:51:35.087Z,100462.91
2022-09-23T12:54:04.930Z,100454.03
2022-09-23T12:56:37.818Z,100450.00
2022-09-23T12:59:23.295Z,100444.06
2022-09-23T13:01:50.561Z,100440.13
2022-09-23T13:04:47.506Z,100443.94
2022-09-23T13:07:17.059Z,100432.69
2022-09-23T13:09:49.002Z,100437.00
2022-09-23T13:12:32.417Z,100433.59
2022-09-23T13:15:03.537Z,100430.84
2022-09-23T13:17:32.909Z,100425.75
2022-09-23T13:20:21.772Z,100424.41
2022-09-23T13:22:48.763Z,100425.12
2022-09-23T13:25:28.958Z,100420.97
2022-09-23T13:28:01.796Z,100422.88
2022-09-23T13:30:28.988Z,100426.09
2022-09-23T13:33:05.241Z,100433.66
2022-09-23T13:35:40.946Z,100422.56
2022-09-23T13:38:25.995Z,100422.84
2022-09-23T13:41:05.455Z,100415.72
2022-09-23T13:43:41.486Z,100414.41
2022-09-23T13:46:13.361Z,100418.72
2022-09-23T13:48:41.539Z,100405.72
2022-09-23T13:51:11.821Z,100403.97
2022-09-23T13:53:38.658Z,100408.03
2022-09-23T13:56:13.095Z,100404.84
2022-09-23T13:58:40.581Z,100407.72
2022-09-23T14:01:10.264Z,100410.50
2022-09-23T14:03:38.931Z,100406.91
2022-09-23T14:06:10.099Z,100402.75
2022-09-23T14:08:39.382Z,100407.53
2022-09-23T14:11:07.340Z,100400.59
2022-09-23T14:13:40.745Z,100398.59
2022-09-23T14:16:10.179Z,100401.72
2022-09-23T14:18:43.264Z,100397.19
2022-09-23T14:21:30.415Z,100380.09
2022-09-23T14:23:59.564Z,100385.69
2022-09-23T14:26:26.839Z,100381.53
2022-09-23T14:28:54.025Z,100385.00
2022-09-23T14:31:21.028Z,100375.13
2022-09-23T14:33:48.174Z,100378.31
2022-09-23T14:36:35.509Z,100378.06
2022-09-23T14:39:04.710Z,100381.31
2022-09-23T14:41:36.411Z,100384.00
2022-09-23T14:44:03.675Z,100389.31
2022-09-23T14:46:34.150Z,100374.41
2022-09-23T14:49:08.588Z,100367.09
2022-09-23T14:51:46.375Z,100362.87
2022-09-23T14:54:32.524Z,100360.88
2022-09-23T14:57:00.712Z,100368.47
2022-09-23T14:59:33.628Z,100370.78
2022-09-23T15:02:00.751Z,100364.78
2022-09-23T15:04:30.915Z,100352.81
2022-09-23T15:07:15.539Z,100365.56
2022-09-23T15:09:44.137Z,100359.53
2022-09-23T15:12:14.818Z,100362.13
2022-09-23T15:14:46.431Z,100368.75
2022-09-23T15:17:23.478Z,100362.06
2022-09-23T15:19:56.856Z,100365.97
2022-09-23T15:22:27.290Z,100364.03
2022-09-23T15:24:55.793Z,100373.91
2022-09-23T15:27:31.966Z,100373.91
2022-09-23T15:30:19.152Z,100374.84
2022-09-23T15:32:46.728Z,100368.09
2022-09-23T15:35:15.791Z,100371.50
2022-09-23T15:37:43.908Z,100369.44
2022-09-23T15:40:19.063Z,100367.75
2022-09-23T15:42:52.388Z,100355.87
2022-09-23T15:45:22.299Z,100363.88
2022-09-23T15:47:49.910Z,100355.87
2022-09-23T15:50:17.476Z,100352.00
2022-09-23T15:52:45.088Z,100357.44
2022-09-23T15:55:21.249Z,100353.59
2022-09-23T15:57:48.435Z,100356.47
2022-09-23T16:00:16.531Z,100359.31
2022-09-23T16:02:48.355Z,100354.12
2022-09-23T16:05:34.120Z,100357.97
2022-09-23T16:08:06.422Z,100355.97
2022-09-23T16:10:36.993Z,100358.81
2022-09-23T16:13:06.912Z,100360.31
2022-09-23T16:15:34.183Z,100363.28
2022-09-23T16:18:01.180Z,100363.09
2022-09-23T16:20:31.023Z,100353.69
2022-09-23T16:23:02.934Z,100361.12
2022-09-23T16:25:35.853Z,100362.03
2022-09-23T16:28:04.152Z,100358.44
2022-09-23T16:30:33.410Z,100358.22
2022-09-23T16:33:00.995Z,100359.78
2022-09-23T16:35:33.488Z,100355.13
2022-09-23T16:38:00.657Z,100366.44
2022-09-23T16:40:27.636Z,100360.34
2022-09-23T16:42:58.770Z,100356.41
2022-09-23T16:45:28.596Z,100356.44
2022-09-23T16:47:57.590Z,100364.69
2022-09-23T16:50:24.475Z,100358.25
2022-09-23T16:52:59.411Z,100361.53
2022-09-23T16:55:29.435Z,100350.72
2022-09-23T16:57:59.319Z,100350.34
2022-09-23T17:00:47.674Z,100345.13
2022-09-23T17:03:33.564Z,100347.84
2022-09-23T17:06:03.434Z,100353.47
2022-09-23T17:08:33.318Z,100344.53
2022-09-23T17:11:00.754Z,100357.84
2022-09-23T17:13:28.322Z,100347.97
2022-09-23T17:15:55.989Z,100351.03
2022-09-23T17:18:23.024Z,100353.00
2022-09-23T17:20:57.755Z,100353.13
2022-09-23T17:23:26.610Z,100357.31
2022-09-23T17:25:53.885Z,100351.19
2022-09-23T17:28:21.357Z,100355.47
2022-09-23T17:30:51.504Z,100355.34
2022-09-23T17:33:19.409Z,100352.56
2022-09-23T17:35:46.255Z,100356.28
2022-09-23T17:38:13.396Z,100362.13
2022-09-23T17:40:40.529Z,100362.09
2022-09-23T17:43:07.762Z,100369.84
2022-09-23T17:45:37.777Z,100358.66
2022-09-23T17:48:04.721Z,100358.94
2022-09-23T17:50:31.572Z,100354.88
2022-09-23T17:53:00.375Z,100356.38
2022-09-23T17:55:27.251Z,100359.16
2022-09-23T17:57:54.090Z,100364.97
2022-09-23T18:00:21.225Z,100363.22
2022-09-23T18:02:50.959Z,100371.41
2022-09-23T18:05:17.845Z,100365.09
2022-09-23T18:07:44.733Z,100359.88
2022-09-23T18:10:11.823Z,100370.81
2022-09-23T18:12:38.710Z,100376.37
2022-09-23T18:15:05.668Z,100372.19
2022-09-23T18:17:32.963Z,100374.12
2022-09-23T18:20:00.199Z,100374.25
2022-09-23T18:22:27.103Z,100375.97
2022-09-23T18:24:54.240Z,100365.91
2022-09-23T18:27:21.098Z,100366.41
2022-09-23T18:29:48.165Z,100364.03
2022-09-23T18:32:15.773Z,100366.03
2022-09-23T18:34:42.783Z,100367.75
2022-09-23T18:37:15.828Z,100376.37
2022-09-23T18:39:43.463Z,100371.31
2022-09-23T18:42:10.940Z,100378.94
2022-09-23T18:44:38.033Z,100378.84
2022-09-23T18:47:05.160Z,100384.12
2022-09-23T18:49:50.459Z,100375.84
2022-09-23T18:52:17.642Z,100376.97
2022-09-23T18:54:44.655Z,100383.47
2022-09-23T18:57:13.129Z,100381.44
2022-09-23T18:59:40.261Z,100379.25
2022-09-23T19:02:07.388Z,100372.66
2022-09-23T19:04:34.380Z,100373.13
2022-09-23T19:07:01.532Z,100372.63
2022-09-23T19:09:28.538Z,100376.37
2022-09-23T19:11:55.407Z,100377.06
2022-09-23T19:14:22.663Z,100367.59
2022-09-23T19:16:49.574Z,100373.84
2022-09-23T19:19:16.671Z,100376.13
2022-09-23T19:21:43.764Z,100369.75
2022-09-23T19:24:14.406Z,100372.16
2022-09-23T19:26:42.092Z,100377.91
2022-09-23T19:29:13.959Z,100376.44
2022-09-23T19:31:41.131Z,100375.47
2022-09-23T19:34:11.835Z,100373.03
2022-09-23T19:36:42.201Z,100369.91
2022-09-23T19:39:20.949Z,100369.56
2022-09-23T19:41:48.667Z,100376.97
2022-09-23T19:44:16.488Z,100378.06
2022-09-23T19:46:45.550Z,100375.31
2022-09-23T19:49:13.340Z,100375.31
2022-09-23T19:51:40.431Z,100378.28
2022-09-23T19:54:08.209Z,100377.06
2022-09-23T19:56:35.769Z,100381.62
2022-09-23T19:59:04.462Z,100381.69
2022-09-23T20:01:32.051Z,100377.09
2022-09-23T20:03:59.729Z,100375.03
2022-09-23T20:06:30.806Z,100372.37
2022-09-23T20:09:01.559Z,100377.91
2022-09-23T20:11:29.049Z,100377.97
2022-09-23T20:14:00.932Z,100374.38
2022-09-23T20:16:31.838Z,100379.50
2022-09-23T20:19:00.252Z,100376.97
2022-09-23T20:21:29.250Z,100371.91
2022-09-23T20:23:57.800Z,100378.78
2022-09-23T20:26:43.959Z,100361.19
2022-09-23T20:29:11.327Z,100371.72
2022-09-23T20:31:40.401Z,100374.44
2022-09-23T20:34:08.182Z,100372.34
2022-09-23T20:36:36.237Z,100374.78
2022-09-23T20:39:05.935Z,100380.03
2022-09-23T20:41:37.420Z,100370.56
2022-09-23T20:44:11.593Z,100365.41
2022-09-23T20:46:38.889Z,100371.41
2022-09-23T20:49:07.908Z,100374.25
2022-09-23T20:51:38.158Z,100368.28
2022-09-23T20:54:05.123Z,100371.22
2022-09-23T20:56:32.270Z,100370.88
2022-09-23T20:59:03.495Z,100363.78
2022-09-23T21:01:34.356Z,100368.31
2022-09-23T21:04:03.961Z,100366.75
2022-09-23T21:06:31.162Z,100363.38
2022-09-23T21:08:57.993Z,100369.37
2022-09-23T21:11:25.691Z,100364.12
2022-09-23T21:13:52.531Z,100364.12
2022-09-23T21:16:22.440Z,100372.41
2022-09-23T21:18:50.398Z,100365.13
2022-09-23T21:21:19.410Z,100371.03
2022-09-23T21:23:46.860Z,100373.97
2022-09-23T21:26:14.515Z,100370.31
2022-09-23T21:28:42.695Z,100370.00
2022-09-23T21:31:11.796Z,100373.88
2022-09-23T21:33:38.938Z,100370.00
2022-09-23T21:36:06.962Z,100375.25
2022-09-23T21:38:35.876Z,100374.41
2022-09-23T21:41:06.135Z,100378.66
2022-09-23T21:43:38.488Z,100373.81
2022-09-23T21:46:11.313Z,100370.84
2022-09-23T21:48:42.487Z,100371.47
2022-09-23T21:51:40.498Z,100374.84
2022-09-23T21:54:14.260Z,100373.81
2022-09-23T21:56:42.164Z,100381.34
2022-09-23T21:59:09.155Z,100381.16
2022-09-23T22:01:38.239Z,100377.03
2022-09-23T22:04:17.038Z,100378.19
2022-09-23T22:06:44.604Z,100370.81
2022-09-23T22:09:17.369Z,100379.63
2022-09-23T22:12:03.062Z,100382.84
2022-09-23T22:14:30.690Z,100380.03
2022-09-23T22:17:03.058Z,100377.53
2022-09-23T22:19:44.240Z,100377.53
2022-09-23T22:22:13.628Z,100378.78
2022-09-23T22:24:41.538Z,100373.69
2022-09-23T22:27:12.418Z,100384.44
2022-09-23T22:29:57.730Z,100379.19
2022-09-23T22:32:43.751Z,100379.34
2022-09-23T22:35:19.225Z,100388.19
2022-09-23T22:37:47.294Z,100375.22
2022-09-23T22:40:15.202Z,100373.84
2022-09-23T22:42:42.701Z,100375.63
2022-09-23T22:45:10.985Z,100375.06
2022-09-23T22:47:39.644Z,100376.31
2022-09-23T22:50:08.527Z,100378.84
2022-09-23T22:52:35.977Z,100384.19
2022-09-23T22:55:03.701Z,100375.38
2022-09-23T22:57:31.313Z,100383.25
2022-09-23T22:59:58.469Z,100374.41
2022-09-23T23:02:25.311Z,100366.84
2022-09-23T23:04:52.197Z,100373.69
2022-09-23T23:07:21.017Z,100376.81
2022-09-23T23:09:49.707Z,100369.63
2022-09-23T23:12:18.909Z,100375.97
2022-09-23T23:14:46.913Z,100373.84
2022-09-23T23:17:13.776Z,100379.56
2022-09-23T23:19:40.702Z,100373.00
2022-09-23T23:22:07.858Z,100370.28
2022-09-23T23:24:34.705Z,100366.66
2022-09-23T23:27:01.596Z,100368.59
2022-09-23T23:29:28.684Z,100369.28
2022-09-23T23:31:55.647Z,100364.47
2022-09-23T23:34:23.032Z,100361.00
2022-09-23T23:36:56.532Z,100355.91
2022-09-23T23:39:24.463Z,100360.03
2022-09-23T23:41:53.307Z,100351.88
2022-09-23T23:44:20.169Z,100346.63
2022-09-23T23:46:47.084Z,100349.06
2022-09-23T23:49:14.198Z,100346.50
2022-09-23T23:51:41.206Z,100354.38
2022-09-23T23:54:08.112Z,100343.81
2022-09-23T23:56:35.260Z,100351.56
2022-09-23T23:59:02.606Z,100350.91
